Time;durP1;ratioP1;P1;durP2;ratioP2;P2;SDS_P1;SDS_P2;PMS_P1;PMS_P2;Temp;Humidity;BMP_temperature;BMP_pressure;BME280_temperature;BME280_humidity;BME280_pressure;Samples;Min_cycle;Max_cycle;Signal;HPM_P1;HPM_P2
2022/12/08 00:01:25;;;;;;;0.22;0.10;;;3.30;99.90;;;;;;5036007;28;20120;-74
2022/12/08 00:03:51;;;;;;;0.35;0.15;;;3.30;99.90;;;;;;5027681;28;20120;-74
2022/12/08 00:09:20;;;;;;;1.98;0.75;;;3.20;99.90;;;;;;5033262;28;20053;-74
2022/12/08 00:12:03;;;;;;;0.70;0.38;;;3.20;99.90;;;;;;5045657;28;20125;-73
2022/12/08 00:14:32;;;;;;;0.47;0.47;;;3.20;99.90;;;;;;5043677;28;20045;-74
2022/12/08 00:16:58;;;;;;;0.52;0.35;;;3.20;99.90;;;;;;5035401;28;20046;-74
2022/12/08 00:19:25;;;;;;;0.95;0.28;;;3.20;99.90;;;;;;5033106;28;20043;-74
2022/12/08 00:21:51;;;;;;;0.28;0.20;;;3.20;99.90;;;;;;5033502;28;20033;-74
2022/12/08 00:24:18;;;;;;;0.32;0.30;;;3.20;99.90;;;;;;5048691;28;20041;-74
2022/12/08 00:26:44;;;;;;;2.58;0.52;;;3.20;99.90;;;;;;5027082;28;20571;-74
2022/12/08 00:29:10;;;;;;;0.43;0.30;;;3.20;99.90;;;;;;5032429;28;20044;-74
2022/12/08 00:31:36;;;;;;;0.60;0.47;;;3.20;99.90;;;;;;5036382;28;20099;-74
2022/12/08 00:34:02;;;;;;;3.47;0.98;;;3.20;99.90;;;;;;5030593;28;20037;-74
2022/12/08 00:36:28;;;;;;;0.75;0.35;;;3.20;99.90;;;;;;5037571;28;20041;-74
2022/12/08 00:38:53;;;;;;;1.55;0.65;;;3.20;99.90;;;;;;5034088;28;20042;-74
2022/12/08 00:42:10;;;;;;;0.20;0.20;;;3.20;99.90;;;;;;5031964;28;20083;-74
2022/12/08 00:44:07;;;;;;;0.30;0.25;;;3.20;99.90;;;;;;5033752;28;20091;-74
2022/12/08 00:46:33;;;;;;;0.88;0.17;;;3.20;99.90;;;;;;5037071;28;20459;-74
2022/12/08 00:48:58;;;;;;;0.98;0.38;;;3.30;99.90;;;;;;5035097;28;20111;-74
2022/12/08 00:51:24;;;;;;;1.25;0.25;;;3.30;99.90;;;;;;5046059;28;20510;-74
2022/12/08 00:53:50;;;;;;;0.20;0.20;;;3.30;99.90;;;;;;5030754;28;20407;-74
2022/12/08 00:56:15;;;;;;;0.57;0.50;;;3.30;99.90;;;;;;5043075;28;20029;-74
2022/12/08 00:58:41;;;;;;;0.32;0.32;;;3.30;99.90;;;;;;5042472;28;20040;-73
2022/12/08 01:01:13;;;;;;;2.17;0.70;;;3.30;99.90;;;;;;5015829;28;20059;-74
2022/12/08 01:03:39;;;;;;;2.17;0.50;;;3.40;99.90;;;;;;5027927;28;20033;-74
2022/12/08 01:06:06;;;;;;;0.47;0.28;;;3.40;99.90;;;;;;5017202;28;20061;-74
2022/12/08 01:08:32;;;;;;;0.17;0.10;;;3.40;99.90;;;;;;5035798;28;20372;-74
2022/12/08 01:11:05;;;;;;;0.30;0.10;;;3.40;99.90;;;;;;5014504;28;20060;-74
2022/12/08 01:13:31;;;;;;;0.38;0.25;;;3.50;99.90;;;;;;5038445;28;20057;-74
2022/12/08 01:15:56;;;;;;;4.25;0.43;;;3.50;99.90;;;;;;5025108;28;20063;-74
2022/12/08 01:18:22;;;;;;;0.30;0.15;;;3.50;99.90;;;;;;5032939;28;20037;-74
2022/12/08 01:20:47;;;;;;;0.32;0.20;;;3.50;99.90;;;;;;5015289;28;20601;-74
2022/12/08 01:23:13;;;;;;;0.08;0.08;;;3.50;99.90;;;;;;5031787;28;20033;-74
2022/12/08 01:25:39;;;;;;;1.17;0.40;;;3.50;99.90;;;;;;5029976;28;20040;-74
2022/12/08 01:28:04;;;;;;;0.20;0.10;;;3.50;99.90;;;;;;5013926;28;20094;-74
2022/12/08 01:30:30;;;;;;;1.92;0.55;;;3.50;99.90;;;;;;5040860;28;20124;-74
2022/12/08 01:32:56;;;;;;;0.82;0.35;;;3.50;99.90;;;;;;5046209;28;20053;-74
2022/12/08 01:35:22;;;;;;;1.60;0.30;;;3.50;99.90;;;;;;5032445;28;20044;-74
2022/12/08 01:37:49;;;;;;;2.95;0.43;;;3.50;99.90;;;;;;5034394;28;20056;-74
2022/12/08 01:40:15;;;;;;;0.32;0.30;;;3.50;99.90;;;;;;5025963;28;20029;-74
2022/12/08 01:42:40;;;;;;;3.30;0.30;;;3.50;99.90;;;;;;5030027;28;20098;-74
2022/12/08 01:45:13;;;;;;;0.85;0.30;;;3.50;99.90;;;;;;5041959;28;20068;-74
2022/12/08 01:47:47;;;;;;;0.80;0.57;;;3.50;99.90;;;;;;5029280;28;20052;-74
2022/12/08 01:50:16;;;;;;;2.65;0.90;;;3.50;99.90;;;;;;5032903;28;20041;-74
2022/12/08 01:52:53;;;;;;;0.93;0.70;;;3.40;99.90;;;;;;5034187;28;20040;-75
2022/12/08 01:55:27;;;;;;;1.15;0.32;;;3.40;99.90;;;;;;5018343;28;20044;-74
2022/12/08 01:57:56;;;;;;;0.47;0.30;;;3.40;99.90;;;;;;5035288;28;20038;-74
2022/12/08 02:00:22;;;;;;;0.47;0.40;;;3.40;99.90;;;;;;5022870;28;20045;-74
2022/12/08 02:02:59;;;;;;;0.10;0.10;;;3.40;99.90;;;;;;5035083;28;20033;-74
2022/12/08 02:05:28;;;;;;;0.40;0.20;;;3.40;99.90;;;;;;5023161;28;20410;-74
2022/12/08 02:07:56;;;;;;;0.52;0.30;;;3.40;99.90;;;;;;5044145;28;20033;-74
2022/12/08 02:10:23;;;;;;;0.20;0.20;;;3.40;99.90;;;;;;5034149;28;20446;-74
2022/12/08 02:12:52;;;;;;;0.47;0.30;;;3.40;99.90;;;;;;5035267;28;20406;-74
2022/12/08 02:15:19;;;;;;;4.40;0.50;;;3.30;99.90;;;;;;5036246;28;20044;-74
2022/12/08 02:18:03;;;;;;;0.80;0.20;;;3.40;99.90;;;;;;5045271;28;20037;-74
2022/12/08 02:20:47;;;;;;;0.10;0.10;;;3.30;99.90;;;;;;5047300;28;20064;-74
2022/12/08 02:23:38;;;;;;;0.08;0.08;;;3.30;99.90;;;;;;5037633;28;20041;-74
2022/12/08 02:26:22;;;;;;;0.10;0.10;;;3.30;99.90;;;;;;5015085;28;20177;-74
2022/12/08 02:29:08;;;;;;;0.00;0.00;;;3.30;99.90;;;;;;5043861;28;20504;-74
2022/12/08 02:31:49;;;;;;;2.17;0.75;;;3.30;99.90;;;;;;5030613;28;20044;-74
2022/12/08 02:34:28;;;;;;;0.00;0.00;;;3.20;99.90;;;;;;5050893;28;20433;-74
2022/12/08 02:37:01;;;;;;;0.05;0.05;;;3.20;99.90;;;;;;5015634;28;20553;-74
2022/12/08 02:39:32;;;;;;;0.00;0.00;;;3.20;99.90;;;;;;5045480;28;20047;-74
2022/12/08 02:42:15;;;;;;;0.10;0.10;;;3.20;99.90;;;;;;5032392;28;20499;-74
2022/12/08 02:44:53;;;;;;;0.00;0.00;;;3.20;99.90;;;;;;5038058;28;20115;-74
2022/12/08 02:47:20;;;;;;;0.25;0.20;;;3.20;99.90;;;;;;5040863;28;20511;-74
2022/12/08 02:49:46;;;;;;;0.08;0.00;;;3.20;99.90;;;;;;5031161;28;20053;-74
2022/12/08 02:52:11;;;;;;;0.00;0.00;;;3.20;99.90;;;;;;5033395;28;20037;-74
2022/12/08 02:54:56;;;;;;;0.20;0.10;;;3.20;99.90;;;;;;5047344;28;20123;-74
2022/12/08 02:57:24;;;;;;;0.03;0.03;;;3.20;99.90;;;;;;5038176;28;20441;-75
2022/12/08 03:00:04;;;;;;;1.27;0.40;;;3.20;99.90;;;;;;5026708;28;20033;-74
2022/12/08 03:02:47;;;;;;;1.13;0.20;;;3.20;99.90;;;;;;5036811;28;20052;-74
2022/12/08 03:05:38;;;;;;;0.82;0.10;;;3.20;99.90;;;;;;5034090;28;20453;-74
2022/12/08 03:08:08;;;;;;;0.43;0.13;;;3.30;99.90;;;;;;5037183;28;20066;-74
2022/12/08 03:10:57;;;;;;;0.30;0.30;;;3.30;99.90;;;;;;5011796;28;20037;-74
2022/12/08 03:13:28;;;;;;;0.73;0.17;;;3.30;99.90;;;;;;5025988;28;20519;-74
2022/12/08 03:15:55;;;;;;;0.00;0.00;;;3.30;99.90;;;;;;5038837;28;20128;-75
2022/12/08 03:18:25;;;;;;;0.55;0.35;;;3.30;99.90;;;;;;5035090;28;20062;-74
2022/12/08 03:20:51;;;;;;;0.60;0.10;;;3.30;99.90;;;;;;5046043;28;20489;-74
2022/12/08 03:23:17;;;;;;;0.45;0.30;;;3.40;99.90;;;;;;5050123;28;20056;-74
2022/12/08 03:25:57;;;;;;;0.10;0.05;;;3.40;99.90;;;;;;5030858;28;20053;-75
2022/12/08 03:28:23;;;;;;;0.15;0.10;;;3.40;99.90;;;;;;5038851;28;20036;-75
2022/12/08 03:30:53;;;;;;;0.38;0.20;;;3.40;99.90;;;;;;5034721;28;20041;-75
2022/12/08 03:33:29;;;;;;;0.40;0.20;;;3.40;99.90;;;;;;5027230;28;20037;-74
2022/12/08 03:35:55;;;;;;;3.33;0.10;;;3.40;99.90;;;;;;5044102;28;20037;-74
2022/12/08 03:38:21;;;;;;;0.20;0.15;;;3.50;99.90;;;;;;5047878;28;20508;-74
2022/12/08 03:41:17;;;;;;;0.03;0.00;;;3.50;99.90;;;;;;5029358;28;20029;-74
2022/12/08 03:43:32;;;;;;;0.32;0.20;;;3.50;99.90;;;;;;5036086;28;20037;-74
2022/12/08 03:45:58;;;;;;;0.40;0.22;;;3.50;99.90;;;;;;5035030;28;20037;-75
2022/12/08 03:48:24;;;;;;;0.10;0.10;;;3.50;99.90;;;;;;5030682;28;20045;-75
2022/12/08 03:50:49;;;;;;;0.08;0.08;;;3.50;99.90;;;;;;5030560;28;20101;-75
2022/12/08 03:53:15;;;;;;;0.10;0.10;;;3.50;99.90;;;;;;5016716;28;20077;-75
2022/12/08 03:55:41;;;;;;;0.82;0.57;;;3.50;99.90;;;;;;5036927;28;20045;-74
2022/12/08 03:58:06;;;;;;;0.28;0.10;;;3.40;99.90;;;;;;5034251;28;20045;-74
2022/12/08 04:00:32;;;;;;;0.00;0.00;;;3.40;99.90;;;;;;5030417;28;20136;-73
2022/12/08 04:02:57;;;;;;;0.05;0.05;;;3.40;99.90;;;;;;5050200;28;20072;-73
2022/12/08 04:05:23;;;;;;;0.00;0.00;;;3.30;99.90;;;;;;5047122;28;20053;-73
2022/12/08 04:07:48;;;;;;;0.28;0.15;;;3.40;99.90;;;;;;5017441;28;20507;-74
2022/12/08 04:10:14;;;;;;;0.00;0.00;;;3.30;99.90;;;;;;5023128;28;20042;-74
2022/12/08 04:12:40;;;;;;;0.38;0.10;;;3.40;99.90;;;;;;5033354;28;20074;-74
2022/12/08 04:15:06;;;;;;;0.35;0.20;;;3.30;99.90;;;;;;5031964;28;21791;-74
2022/12/08 04:17:31;;;;;;;0.00;0.00;;;3.30;99.90;;;;;;5038732;28;20051;-74
2022/12/08 04:19:57;;;;;;;1.15;0.70;;;3.30;99.90;;;;;;5015869;28;20038;-74
2022/12/08 04:22:22;;;;;;;0.03;0.03;;;3.30;99.90;;;;;;5035823;28;20041;-74
2022/12/08 04:24:48;;;;;;;0.17;0.17;;;3.30;99.90;;;;;;5049094;28;20033;-74
2022/12/08 04:27:14;;;;;;;0.00;0.00;;;3.30;99.90;;;;;;5048698;28;20678;-74
2022/12/08 04:29:39;;;;;;;0.10;0.10;;;3.30;99.90;;;;;;5036855;28;20049;-74
2022/12/08 04:32:05;;;;;;;3.20;0.20;;;3.40;99.90;;;;;;5032111;28;20049;-74
2022/12/08 04:34:31;;;;;;;0.85;0.47;;;3.30;99.90;;;;;;5033817;28;20033;-74
2022/12/08 04:36:56;;;;;;;0.00;0.00;;;3.30;99.90;;;;;;5045810;28;20494;-74
2022/12/08 04:39:22;;;;;;;1.75;0.25;;;3.30;99.90;;;;;;5035483;28;20136;-74
2022/12/08 04:41:47;;;;;;;0.20;0.00;;;3.30;99.90;;;;;;5029352;28;20044;-74
2022/12/08 04:44:13;;;;;;;0.00;0.00;;;3.30;99.90;;;;;;5043935;28;20045;-74
2022/12/08 04:46:38;;;;;;;0.70;0.20;;;3.30;99.90;;;;;;5030121;28;20027;-74
2022/12/08 04:49:04;;;;;;;0.10;0.10;;;3.30;99.90;;;;;;5035372;28;20034;-74
2022/12/08 04:51:30;;;;;;;0.25;0.08;;;3.30;99.90;;;;;;5043655;28;20041;-74
2022/12/08 04:53:55;;;;;;;4.38;0.20;;;3.30;99.90;;;;;;5040465;28;20330;-74
2022/12/08 04:56:21;;;;;;;0.45;0.08;;;3.30;99.90;;;;;;5032776;28;20553;-74
2022/12/08 04:58:46;;;;;;;0.10;0.05;;;3.30;99.90;;;;;;5048142;28;20043;-74
2022/12/08 05:01:13;;;;;;;0.85;0.10;;;3.30;99.90;;;;;;5027403;28;20037;-74
2022/12/08 05:03:39;;;;;;;0.00;0.00;;;3.30;99.90;;;;;;5034492;28;20030;-74
2022/12/08 05:06:04;;;;;;;0.10;0.10;;;3.30;99.90;;;;;;5044522;28;21597;-74
2022/12/08 05:08:31;;;;;;;0.00;0.00;;;3.40;99.90;;;;;;5029423;28;20421;-74
2022/12/08 05:11:05;;;;;;;0.00;0.00;;;3.30;99.90;;;;;;5028773;28;20041;-74
2022/12/08 05:13:30;;;;;;;0.22;0.10;;;3.30;99.90;;;;;;5035899;28;20061;-74
2022/12/08 05:16:11;;;;;;;1.58;0.32;;;3.40;99.90;;;;;;5028803;28;20136;-74
2022/12/08 05:18:38;;;;;;;8.93;0.80;;;3.40;99.90;;;;;;5037222;28;20124;-74
2022/12/08 05:21:05;;;;;;;0.08;0.08;;;3.40;99.90;;;;;;5023919;28;20495;-74
2022/12/08 05:23:31;;;;;;;0.20;0.20;;;3.40;99.90;;;;;;5030273;28;20040;-74
2022/12/08 05:25:56;;;;;;;0.30;0.20;;;3.40;99.90;;;;;;5015020;28;20033;-75
2022/12/08 05:28:23;;;;;;;2.30;0.30;;;3.40;99.90;;;;;;5035196;28;20164;-74
2022/12/08 05:30:48;;;;;;;0.40;0.20;;;3.40;99.90;;;;;;5033789;28;20060;-74
2022/12/08 05:33:14;;;;;;;0.85;0.20;;;3.40;99.90;;;;;;5035450;28;20033;-74
2022/12/08 05:35:40;;;;;;;0.32;0.13;;;3.40;99.90;;;;;;5047590;28;20041;-74
2022/12/08 05:38:06;;;;;;;0.47;0.20;;;3.40;99.90;;;;;;5041055;28;20673;-74
2022/12/08 05:40:31;;;;;;;0.13;0.10;;;3.40;99.90;;;;;;5038532;28;20041;-74
2022/12/08 05:42:57;;;;;;;0.30;0.30;;;3.30;99.90;;;;;;5050016;28;20033;-74
2022/12/08 05:45:22;;;;;;;0.10;0.10;;;3.40;99.90;;;;;;5034378;28;20061;-74
2022/12/08 05:47:48;;;;;;;0.13;0.10;;;3.40;99.90;;;;;;5047898;28;20048;-74
2022/12/08 05:50:14;;;;;;;0.52;0.20;;;3.40;99.90;;;;;;5048274;28;20069;-74
2022/12/08 05:52:39;;;;;;;0.30;0.15;;;3.50;99.90;;;;;;5054623;28;20083;-74
2022/12/08 05:55:05;;;;;;;0.17;0.17;;;3.40;99.90;;;;;;5040437;28;20052;-74
2022/12/08 05:57:31;;;;;;;0.10;0.05;;;3.40;99.90;;;;;;5034095;28;20546;-74
2022/12/08 05:59:58;;;;;;;0.60;0.22;;;3.40;99.90;;;;;;5037839;28;20134;-74
2022/12/08 06:02:25;;;;;;;1.15;0.30;;;3.40;99.90;;;;;;5048295;28;20056;-74
2022/12/08 06:04:50;;;;;;;0.17;0.10;;;3.40;99.90;;;;;;5025007;28;20689;-74
2022/12/08 06:07:16;;;;;;;1.08;0.30;;;3.40;99.90;;;;;;5041099;28;20596;-74
2022/12/08 06:09:42;;;;;;;0.47;0.45;;;3.40;99.90;;;;;;5016094;28;20036;-74
2022/12/08 06:12:10;;;;;;;0.80;0.40;;;3.40;99.90;;;;;;5049354;28;20885;-74
2022/12/08 06:14:37;;;;;;;0.50;0.40;;;3.40;99.90;;;;;;5016215;28;20045;-74
2022/12/08 06:17:03;;;;;;;0.70;0.40;;;3.50;99.90;;;;;;5031471;28;20042;-74
2022/12/08 06:19:28;;;;;;;0.20;0.13;;;3.50;99.90;;;;;;5033962;28;20078;-74
2022/12/08 06:21:54;;;;;;;0.38;0.30;;;3.50;99.90;;;;;;5031928;28;20503;-74
2022/12/08 06:24:19;;;;;;;0.20;0.10;;;3.50;99.90;;;;;;5033486;28;20037;-74
2022/12/08 06:26:45;;;;;;;0.20;0.10;;;3.50;99.90;;;;;;5035499;28;20815;-74
2022/12/08 06:29:11;;;;;;;0.60;0.40;;;3.50;99.90;;;;;;5034260;28;20039;-74
2022/12/08 06:31:37;;;;;;;0.32;0.30;;;3.60;99.90;;;;;;5036900;28;20087;-74
2022/12/08 06:34:03;;;;;;;0.35;0.15;;;3.60;99.90;;;;;;5019211;28;20128;-74
2022/12/08 06:36:29;;;;;;;0.15;0.15;;;3.50;99.90;;;;;;5037695;28;20042;-74
2022/12/08 06:38:55;;;;;;;0.30;0.10;;;3.50;99.90;;;;;;5032047;28;20045;-74
2022/12/08 06:41:20;;;;;;;1.35;0.70;;;3.60;99.90;;;;;;5011751;28;20083;-74
2022/12/08 06:43:46;;;;;;;0.25;0.15;;;3.50;99.90;;;;;;5048880;28;20029;-74
2022/12/08 06:46:15;;;;;;;0.35;0.20;;;3.40;99.90;;;;;;5045159;28;20059;-74
2022/12/08 06:48:41;;;;;;;4.13;0.22;;;3.40;99.90;;;;;;5038357;28;20049;-74
2022/12/08 06:51:15;;;;;;;9.23;0.85;;;3.40;99.90;;;;;;5033630;28;20522;-74
2022/12/08 06:53:42;;;;;;;1.35;0.40;;;3.30;99.90;;;;;;5031347;28;20038;-74
2022/12/08 06:56:08;;;;;;;0.50;0.30;;;3.30;99.90;;;;;;5049813;28;20056;-74
2022/12/08 06:58:34;;;;;;;0.85;0.17;;;3.30;99.90;;;;;;5037923;28;20033;-74
2022/12/08 07:01:12;;;;;;;1.35;0.35;;;3.30;99.90;;;;;;5037243;28;20040;-74
2022/12/08 07:03:38;;;;;;;0.70;0.28;;;3.30;99.90;;;;;;5050938;28;20102;-74
2022/12/08 07:06:05;;;;;;;0.30;0.20;;;3.20;99.90;;;;;;5041767;28;20033;-74
2022/12/08 07:08:31;;;;;;;0.75;0.20;;;3.20;99.90;;;;;;5049544;28;20479;-74
2022/12/08 07:10:57;;;;;;;0.28;0.17;;;3.30;99.90;;;;;;5031032;28;20060;-74
2022/12/08 07:13:22;;;;;;;0.50;0.30;;;3.20;99.90;;;;;;5011354;28;20511;-74
2022/12/08 07:15:48;;;;;;;0.52;0.20;;;3.20;99.90;;;;;;5032339;28;20082;-74
2022/12/08 07:18:14;;;;;;;2.15;0.50;;;3.20;99.90;;;;;;5037103;28;20403;-74
2022/12/08 07:20:39;;;;;;;0.95;0.50;;;3.20;99.90;;;;;;5047400;28;20072;-74
2022/12/08 07:23:05;;;;;;;1.17;0.40;;;3.30;99.90;;;;;;5051702;28;20059;-74
2022/12/08 07:25:31;;;;;;;0.57;0.40;;;3.30;99.90;;;;;;5045686;28;20395;-74
2022/12/08 07:27:56;;;;;;;0.63;0.38;;;3.30;99.90;;;;;;5032073;28;20467;-74
2022/12/08 07:30:22;;;;;;;1.13;0.45;;;3.30;99.90;;;;;;5027624;28;20037;-74
2022/12/08 07:32:48;;;;;;;1.25;0.50;;;3.30;99.90;;;;;;5040249;28;20044;-74
2022/12/08 07:35:13;;;;;;;1.15;0.63;;;3.30;99.90;;;;;;5039219;28;20102;-74
2022/12/08 07:37:39;;;;;;;0.25;0.25;;;3.30;99.90;;;;;;5038414;28;20368;-74
2022/12/08 07:40:07;;;;;;;0.63;0.30;;;3.30;99.90;;;;;;5028911;28;20028;-74
2022/12/08 07:42:32;;;;;;;0.38;0.35;;;3.30;99.90;;;;;;5031308;28;20478;-74
2022/12/08 07:44:58;;;;;;;0.10;0.10;;;3.30;99.90;;;;;;5050509;28;20035;-74
2022/12/08 07:47:24;;;;;;;0.38;0.20;;;3.30;99.90;;;;;;5042273;28;20032;-74
2022/12/08 07:49:49;;;;;;;8.07;0.68;;;3.30;99.90;;;;;;5046780;28;20036;-74
2022/12/08 07:52:15;;;;;;;0.40;0.20;;;3.30;99.90;;;;;;5035541;28;20438;-74
2022/12/08 07:54:41;;;;;;;0.17;0.17;;;3.30;99.90;;;;;;5042834;28;20124;-74
2022/12/08 07:57:07;;;;;;;0.10;0.10;;;3.30;99.90;;;;;;5044343;28;20124;-74
2022/12/08 07:59:33;;;;;;;0.47;0.20;;;3.30;99.90;;;;;;5021298;28;20040;-74
2022/12/08 08:01:59;;;;;;;0.38;0.30;;;3.30;99.90;;;;;;5048744;28;20034;-74
2022/12/08 08:04:24;;;;;;;0.20;0.20;;;3.30;99.90;;;;;;5012297;28;20621;-74
2022/12/08 08:06:50;;;;;;;0.20;0.20;;;3.20;99.90;;;;;;5045890;28;20051;-74
2022/12/08 08:09:15;;;;;;;0.35;0.28;;;3.20;99.90;;;;;;5040068;28;20037;-74
2022/12/08 08:11:41;;;;;;;0.47;0.28;;;3.20;99.90;;;;;;5047606;28;20183;-74
2022/12/08 08:14:07;;;;;;;1.10;0.43;;;3.20;99.90;;;;;;5026694;28;20135;-74
2022/12/08 08:16:32;;;;;;;0.60;0.35;;;3.20;99.90;;;;;;5023003;28;20029;-74
2022/12/08 08:18:58;;;;;;;0.40;0.28;;;3.10;99.90;;;;;;5036786;28;20106;-74
2022/12/08 08:21:23;;;;;;;0.32;0.22;;;3.10;99.90;;;;;;5036957;28;20102;-74
2022/12/08 08:23:49;;;;;;;0.65;0.38;;;3.10;99.90;;;;;;5037891;28;20041;-74
2022/12/08 08:26:14;;;;;;;0.32;0.20;;;3.10;99.90;;;;;;5041539;28;20036;-73
2022/12/08 08:28:40;;;;;;;0.25;0.20;;;3.10;99.90;;;;;;5040929;28;20053;-74
2022/12/08 08:31:06;;;;;;;0.93;0.43;;;3.10;99.90;;;;;;5027655;28;20175;-74
2022/12/08 08:33:31;;;;;;;0.90;0.38;;;3.10;99.90;;;;;;5033326;28;20075;-74
2022/12/08 08:35:57;;;;;;;0.10;0.10;;;3.10;99.90;;;;;;5037690;28;20037;-74
2022/12/08 08:38:23;;;;;;;0.88;0.45;;;3.10;99.90;;;;;;5043908;28;20029;-73
2022/12/08 08:40:48;;;;;;;0.35;0.35;;;3.10;99.90;;;;;;5045444;28;20040;-74
2022/12/08 08:46:09;;;;;;;0.63;0.43;;;3.10;99.90;;;;;;5030162;28;20076;-75
2022/12/08 08:48:35;;;;;;;0.75;0.30;;;3.00;99.90;;;;;;5031486;28;20132;-74
2022/12/08 08:51:09;;;;;;;0.55;0.40;;;3.00;99.90;;;;;;5018145;28;20048;-73
2022/12/08 08:53:35;;;;;;;0.22;0.20;;;3.00;99.90;;;;;;5032113;28;20041;-74
2022/12/08 08:56:01;;;;;;;1.33;0.30;;;3.00;99.90;;;;;;5028077;28;20040;-74
2022/12/08 08:58:26;;;;;;;0.47;0.40;;;3.00;99.90;;;;;;5028451;28;20123;-74
2022/12/08 09:00:52;;;;;;;0.35;0.35;;;2.90;99.90;;;;;;5027322;28;20042;-74
2022/12/08 09:03:17;;;;;;;0.85;0.30;;;2.90;99.90;;;;;;5028338;28;20137;-74
2022/12/08 09:05:43;;;;;;;2.45;0.55;;;2.90;99.90;;;;;;5028551;28;20036;-74
2022/12/08 09:08:10;;;;;;;0.20;0.10;;;2.90;99.90;;;;;;5034284;28;20102;-74
2022/12/08 09:10:36;;;;;;;0.68;0.25;;;2.90;99.90;;;;;;5033103;28;20075;-74
2022/12/08 09:13:02;;;;;;;0.38;0.30;;;2.80;99.90;;;;;;5052084;28;20057;-74
2022/12/08 09:15:27;;;;;;;0.45;0.22;;;2.90;99.90;;;;;;5051330;28;20517;-74
2022/12/08 09:17:53;;;;;;;0.38;0.28;;;2.90;99.90;;;;;;5034390;28;20046;-74
2022/12/08 09:20:18;;;;;;;0.25;0.10;;;2.90;99.90;;;;;;5051084;28;20048;-74
2022/12/08 09:22:44;;;;;;;0.35;0.10;;;2.80;99.90;;;;;;5051819;28;20037;-74
2022/12/08 09:25:09;;;;;;;0.45;0.28;;;2.90;99.90;;;;;;5060590;28;20067;-74
2022/12/08 09:27:35;;;;;;;0.32;0.22;;;2.90;99.90;;;;;;5032043;28;20515;-74
2022/12/08 09:30:01;;;;;;;0.45;0.20;;;2.90;99.90;;;;;;5067709;28;20128;-74
2022/12/08 09:32:26;;;;;;;1.17;0.45;;;2.90;99.90;;;;;;5051776;28;20052;-74
2022/12/08 09:34:53;;;;;;;0.73;0.32;;;2.90;99.90;;;;;;5067592;28;20041;-74
2022/12/08 09:37:18;;;;;;;1.02;0.30;;;2.90;99.90;;;;;;5051142;28;20045;-74
2022/12/08 09:39:45;;;;;;;0.30;0.30;;;2.90;99.90;;;;;;5039557;28;20037;-74
2022/12/08 09:42:11;;;;;;;1.15;0.30;;;2.90;99.90;;;;;;5051608;28;20071;-74
2022/12/08 09:44:48;;;;;;;2.40;0.70;;;2.90;99.90;;;;;;5034730;28;20065;-74
2022/12/08 09:48:00;;;;;;;0.10;0.10;;;2.90;99.90;;;;;;5051858;28;20045;-74
2022/12/08 09:50:38;;;;;;;4.50;0.63;;;2.90;99.90;;;;;;4973527;28;20567;-74
2022/12/08 09:53:36;;;;;;;0.00;0.00;;;2.90;99.90;;;;;;4990628;28;20101;-74
2022/12/08 09:56:11;;;;;;;0.17;0.03;;;2.90;99.90;;;;;;5025282;28;20053;-74
2022/12/08 09:58:52;;;;;;;1.40;0.22;;;3.00;99.90;;;;;;5050982;28;20047;-74
2022/12/08 10:01:25;;;;;;;0.10;0.10;;;3.00;99.90;;;;;;5033892;28;20113;-74
2022/12/08 10:03:53;;;;;;;0.38;0.17;;;3.00;99.90;;;;;;5063515;28;20239;-74
2022/12/08 10:06:28;;;;;;;1.63;0.20;;;3.00;99.90;;;;;;5030372;28;20043;-74
2022/12/08 10:08:57;;;;;;;0.30;0.10;;;3.00;99.90;;;;;;5031570;28;20033;-74
2022/12/08 10:11:59;;;;;;;0.28;0.17;;;3.00;99.90;;;;;;5067993;28;20829;-74
2022/12/08 10:14:38;;;;;;;0.10;0.10;;;2.90;99.90;;;;;;5015629;28;20435;-74
2022/12/08 10:17:24;;;;;;;0.10;0.10;;;2.90;99.90;;;;;;5036003;28;20037;-74
2022/12/08 10:20:05;;;;;;;0.65;0.35;;;2.90;99.90;;;;;;5030892;28;20498;-74
2022/12/08 10:22:34;;;;;;;1.08;0.20;;;2.80;99.90;;;;;;5057964;28;20047;-73
2022/12/08 10:25:09;;;;;;;0.10;0.10;;;2.80;99.90;;;;;;5055369;28;20064;-73
2022/12/08 10:27:36;;;;;;;1.55;0.52;;;2.80;99.90;;;;;;5054431;28;20044;-73
2022/12/08 10:30:12;;;;;;;0.30;0.30;;;2.80;99.90;;;;;;5060198;28;20078;-73
2022/12/08 10:32:39;;;;;;;0.10;0.10;;;2.80;99.90;;;;;;5051041;28;20389;-74
2022/12/08 10:35:09;;;;;;;0.25;0.10;;;2.80;99.90;;;;;;5056667;28;20102;-74
2022/12/08 10:37:35;;;;;;;1.08;0.40;;;2.90;99.90;;;;;;5057966;28;20045;-73
2022/12/08 10:40:12;;;;;;;2.05;0.50;;;2.90;99.90;;;;;;5045826;28;20040;-73
2022/12/08 10:42:47;;;;;;;0.13;0.10;;;3.00;99.90;;;;;;5031619;28;20037;-74
2022/12/08 10:45:29;;;;;;;0.90;0.40;;;3.00;99.90;;;;;;5064903;28;20033;-74
2022/12/08 10:47:55;;;;;;;0.43;0.20;;;3.10;99.90;;;;;;5052367;28;20527;-74
2022/12/08 10:50:22;;;;;;;0.20;0.20;;;3.10;99.90;;;;;;5054361;28;20127;-75
2022/12/08 10:53:06;;;;;;;0.82;0.60;;;3.20;99.90;;;;;;5059090;28;20135;-75
2022/12/08 10:55:40;;;;;;;0.63;0.40;;;3.20;99.90;;;;;;5055555;28;20652;-75
2022/12/08 10:58:23;;;;;;;1.58;0.40;;;3.20;99.90;;;;;;5035655;28;20628;-74
2022/12/08 11:01:03;;;;;;;0.43;0.15;;;3.30;99.90;;;;;;5045253;28;20037;-74
2022/12/08 11:03:33;;;;;;;1.58;0.35;;;3.30;99.90;;;;;;5041648;28;20069;-74
2022/12/08 11:06:00;;;;;;;0.75;0.47;;;3.40;99.90;;;;;;5036717;28;21241;-74
2022/12/08 11:08:27;;;;;;;0.85;0.32;;;3.40;99.90;;;;;;5044067;28;20942;-73
2022/12/08 11:10:53;;;;;;;0.82;0.35;;;3.40;99.90;;;;;;5053367;28;20040;-74
2022/12/08 11:13:23;;;;;;;0.60;0.43;;;3.50;99.90;;;;;;5052079;28;20049;-74
2022/12/08 11:15:50;;;;;;;2.78;0.98;;;3.50;99.90;;;;;;5040957;28;20044;-74
2022/12/08 11:18:28;;;;;;;0.38;0.28;;;3.60;99.90;;;;;;5049960;28;20045;-73
2022/12/08 11:21:18;;;;;;;1.50;0.52;;;3.60;99.90;;;;;;5047098;28;20033;-73
2022/12/08 11:23:49;;;;;;;1.40;0.75;;;3.60;99.90;;;;;;5043015;28;20097;-74
2022/12/08 11:26:34;;;;;;;1.10;0.60;;;3.60;99.90;;;;;;5037742;28;20042;-74
2022/12/08 11:28:59;;;;;;;2.92;0.82;;;3.70;99.90;;;;;;5051758;28;20385;-74
2022/12/08 11:31:33;;;;;;;1.85;0.60;;;3.70;99.90;;;;;;5049705;28;20033;-74
2022/12/08 11:34:00;;;;;;;0.68;0.63;;;3.70;99.90;;;;;;5039297;28;20124;-74
2022/12/08 11:36:29;;;;;;;2.05;1.10;;;3.70;99.90;;;;;;5032777;28;20074;-74
2022/12/08 11:38:58;;;;;;;0.85;0.40;;;3.80;99.90;;;;;;5045202;28;20041;-74
2022/12/08 11:41:28;;;;;;;1.05;0.60;;;3.90;99.90;;;;;;5041346;28;20056;-74
2022/12/08 11:44:12;;;;;;;1.38;0.77;;;3.90;99.90;;;;;;5056442;28;20043;-74
2022/12/08 11:46:41;;;;;;;0.95;0.60;;;4.00;99.90;;;;;;5046095;28;20047;-73
2022/12/08 11:49:12;;;;;;;1.35;0.75;;;4.00;99.90;;;;;;5048473;28;20044;-74
2022/12/08 11:51:56;;;;;;;1.67;0.55;;;4.00;99.90;;;;;;5054088;28;20041;-74
2022/12/08 11:54:27;;;;;;;1.45;0.57;;;4.10;99.90;;;;;;5053255;28;20036;-73
2022/12/08 11:56:58;;;;;;;0.68;0.45;;;4.10;99.90;;;;;;5049622;28;20032;-73
2022/12/08 11:59:43;;;;;;;0.80;0.43;;;4.20;99.90;;;;;;5045898;28;20040;-73
2022/12/08 12:02:24;;;;;;;1.13;0.60;;;4.30;99.90;;;;;;5040744;28;20045;-74
2022/12/08 12:05:08;;;;;;;1.85;0.57;;;4.30;99.90;;;;;;5043678;28;20036;-73
2022/12/08 12:08:11;;;;;;;0.55;0.32;;;4.40;99.90;;;;;;5048448;28;20069;-74
2022/12/08 12:11:03;;;;;;;0.85;0.65;;;4.50;99.90;;;;;;4998550;28;20041;-74
2022/12/08 12:13:54;;;;;;;33.72;16.77;;;4.50;99.90;;;;;;5046918;28;20597;-74
2022/12/08 12:16:50;;;;;;;6.80;4.22;;;4.50;99.90;;;;;;5045403;28;20083;-73
2022/12/08 12:19:18;;;;;;;7.97;1.42;;;4.50;99.90;;;;;;5045408;28;20068;-73
2022/12/08 12:21:49;;;;;;;130.70;56.40;;;4.50;99.90;;;;;;5041393;28;20047;-73
2022/12/08 12:24:23;;;;;;;6.78;3.55;;;4.50;99.90;;;;;;5039447;28;20090;-73
2022/12/08 12:27:00;;;;;;;2.97;1.40;;;4.50;99.90;;;;;;5036265;28;20348;-74
2022/12/08 12:29:30;;;;;;;18.85;11.02;;;4.50;99.90;;;;;;5051044;28;20028;-73
2022/12/08 12:31:59;;;;;;;10.75;5.30;;;4.50;99.90;;;;;;5040664;28;20053;-74
2022/12/08 12:34:35;;;;;;;1.25;0.95;;;4.50;99.90;;;;;;5032209;28;20033;-75
2022/12/08 12:37:13;;;;;;;1.33;0.82;;;4.60;99.90;;;;;;5041294;28;20172;-73
2022/12/08 12:39:52;;;;;;;3.90;3.08;;;4.70;99.90;;;;;;5042430;28;20029;-73
2022/12/08 12:42:44;;;;;;;6.70;1.08;;;4.80;99.90;;;;;;5046659;28;20037;-73
2022/12/08 12:45:20;;;;;;;6.75;2.97;;;4.80;99.90;;;;;;5049421;28;20038;-73
2022/12/08 12:47:49;;;;;;;1.73;1.27;;;4.80;99.90;;;;;;5049162;28;20192;-73
2022/12/08 12:50:33;;;;;;;2.40;0.98;;;4.80;99.90;;;;;;5048539;28;20044;-73
2022/12/08 12:53:03;;;;;;;0.50;0.30;;;4.80;99.90;;;;;;5033452;28;20044;-73
2022/12/08 12:55:50;;;;;;;2.70;0.93;;;4.80;99.90;;;;;;5025010;28;20864;-73
2022/12/08 12:58:35;;;;;;;0.77;0.32;;;4.70;99.90;;;;;;5022254;28;20111;-74
2022/12/08 13:01:12;;;;;;;0.20;0.10;;;4.70;99.90;;;;;;5041699;28;20064;-73
2022/12/08 13:03:44;;;;;;;1.10;0.63;;;4.70;99.90;;;;;;5031027;28;20032;-73
2022/12/08 13:06:12;;;;;;;0.35;0.10;;;4.70;99.90;;;;;;5036524;28;20040;-73
2022/12/08 13:08:48;;;;;;;0.10;0.00;;;4.60;99.90;;;;;;5039848;28;20379;-73
2022/12/08 13:11:14;;;;;;;0.70;0.45;;;4.60;99.90;;;;;;5036786;28;20103;-73
2022/12/08 13:14:22;;;;;;;7.15;0.22;;;4.50;99.90;;;;;;5023600;28;20838;-73
2022/12/08 13:16:54;;;;;;;1.25;0.00;;;4.50;99.90;;;;;;5008771;28;20047;-73
2022/12/08 13:19:21;;;;;;;5.72;1.13;;;4.40;99.90;;;;;;5025655;28;20600;-73